createdAt,value
2023-02-17T00:00:19.147Z,20.30
2023-02-17T00:02:45.772Z,19.10
2023-02-17T00:05:12.398Z,19.80
2023-02-17T00:07:39.170Z,20.73
2023-02-17T00:10:06.688Z,20.30
2023-02-17T00:12:33.665Z,20.50
2023-02-17T00:15:00.278Z,20.60
2023-02-17T00:17:26.913Z,20.37
2023-02-17T00:19:55.606Z,19.80
2023-02-17T00:22:22.284Z,20.47
2023-02-17T00:24:48.892Z,20.30
2023-02-17T00:27:15.611Z,20.43
2023-02-17T00:29:42.555Z,20.57
2023-02-17T00:32:12.117Z,19.13
2023-02-17T00:34:39.121Z,21.43
2023-02-17T00:37:06.965Z,21.90
2023-02-17T00:39:33.612Z,21.83
2023-02-17T00:42:00.276Z,22.20
2023-02-17T00:44:29.355Z,24.13
2023-02-17T00:46:56.084Z,21.97
2023-02-17T00:49:25.757Z,21.63
2023-02-17T00:51:53.163Z,21.63
2023-02-17T00:54:20.301Z,21.70
2023-02-17T00:56:47.076Z,24.00
2023-02-17T00:59:13.717Z,23.50
2023-02-17T01:01:40.425Z,21.87
2023-02-17T01:04:09.646Z,21.50
2023-02-17T01:06:38.938Z,21.87
2023-02-17T01:09:08.813Z,22.53
2023-02-17T01:11:36.454Z,21.90
2023-02-17T01:14:06.237Z,22.20
2023-02-17T01:16:38.738Z,22.10
2023-02-17T01:19:09.013Z,23.33
2023-02-17T01:21:36.388Z,23.27
2023-02-17T01:24:05.894Z,26.87
2023-02-17T01:26:34.325Z,25.93
2023-02-17T01:29:02.309Z,26.23
2023-02-17T01:31:29.214Z,25.70
2023-02-17T01:33:57.943Z,25.97
2023-02-17T01:36:24.964Z,24.77
2023-02-17T01:38:51.866Z,25.60
2023-02-17T01:41:20.583Z,25.47
2023-02-17T01:44:17.722Z,26.17
2023-02-17T01:46:46.828Z,26.80
2023-02-17T01:49:26.804Z,28.50
2023-02-17T01:52:15.477Z,27.10
2023-02-17T01:54:56.671Z,27.20
2023-02-17T01:57:26.543Z,27.60
2023-02-17T01:59:54.029Z,28.40
2023-02-17T02:02:21.731Z,28.20
2023-02-17T02:04:52.712Z,26.63
2023-02-17T02:07:27.263Z,27.93
2023-02-17T02:09:56.709Z,28.93
2023-02-17T02:12:34.876Z,26.67
2023-02-17T02:15:07.627Z,27.30
2023-02-17T02:18:03.892Z,27.87
2023-02-17T02:20:55.851Z,25.57
2023-02-17T02:23:52.491Z,26.77
2023-02-17T02:26:49.501Z,25.00
2023-02-17T02:29:43.390Z,23.70
2023-02-17T02:32:16.257Z,24.47
2023-02-17T02:34:56.843Z,24.47
2023-02-17T02:37:46.697Z,22.70
2023-02-17T02:40:15.428Z,23.80
2023-02-17T02:42:43.461Z,23.10
2023-02-17T02:45:12.068Z,21.87
2023-02-17T02:47:54.413Z,21.67
2023-02-17T02:50:47.779Z,21.33
2023-02-17T02:53:36.089Z,18.27
2023-02-17T02:56:27.435Z,17.70
2023-02-17T02:59:29.210Z,17.57
2023-02-17T03:02:14.683Z,11.87
2023-02-17T03:04:49.500Z,13.33
2023-02-17T03:07:31.715Z,13.77
2023-02-17T03:10:00.470Z,12.97
2023-02-17T03:12:28.317Z,13.13
2023-02-17T03:15:08.955Z,13.30
2023-02-17T03:17:35.736Z,15.47
2023-02-17T03:20:05.269Z,17.23
2023-02-17T03:22:40.626Z,15.07
2023-02-17T03:25:08.266Z,14.83
2023-02-17T03:27:35.082Z,13.70
2023-02-17T03:30:01.866Z,12.20
2023-02-17T03:32:31.358Z,12.53
2023-02-17T03:34:58.093Z,12.43
2023-02-17T03:37:24.710Z,11.73
2023-02-17T03:39:51.347Z,11.77
2023-02-17T03:42:17.972Z,12.17
2023-02-17T03:44:44.904Z,13.33
2023-02-17T03:47:11.563Z,12.20
2023-02-17T03:49:38.168Z,12.20
2023-02-17T03:52:04.991Z,12.43
2023-02-17T03:54:31.600Z,12.17
2023-02-17T03:56:59.349Z,12.27
2023-02-17T03:59:26.154Z,11.90
2023-02-17T04:01:52.795Z,12.00
2023-02-17T04:04:19.499Z,11.50
2023-02-17T04:06:46.098Z,11.10
2023-02-17T04:09:12.812Z,10.97
2023-02-17T04:11:39.420Z,11.43
2023-02-17T04:14:06.062Z,10.70
2023-02-17T04:16:32.763Z,11.10
2023-02-17T04:18:59.421Z,10.93
2023-02-17T04:21:26.230Z,10.83
2023-02-17T04:23:55.031Z,12.40
2023-02-17T04:26:21.666Z,12.53
2023-02-17T04:28:48.264Z,12.17
2023-02-17T04:31:14.949Z,12.33
2023-02-17T04:33:41.608Z,11.60
2023-02-17T04:36:08.672Z,11.87
2023-02-17T04:38:35.477Z,10.67
2023-02-17T04:41:02.175Z,10.07
2023-02-17T04:43:29.124Z,10.70
2023-02-17T04:45:56.166Z,10.27
2023-02-17T04:48:23.270Z,11.50
2023-02-17T04:50:50.174Z,11.50
2023-02-17T04:53:17.151Z,12.23
2023-02-17T04:55:43.950Z,12.77
2023-02-17T04:58:10.775Z,12.23
2023-02-17T05:00:37.514Z,12.43
2023-02-17T05:03:04.192Z,12.30
2023-02-17T05:05:31.023Z,13.80
2023-02-17T05:07:57.739Z,12.13
2023-02-17T05:10:24.614Z,12.73
2023-02-17T05:12:52.191Z,12.70
2023-02-17T05:15:18.824Z,13.47
2023-02-17T05:17:45.437Z,14.00
2023-02-17T05:20:12.358Z,15.10
2023-02-17T05:22:38.969Z,15.37
2023-02-17T05:25:06.185Z,15.80
2023-02-17T05:27:33.249Z,15.97
2023-02-17T05:30:00.143Z,16.30
2023-02-17T05:32:29.140Z,16.80
2023-02-17T05:34:55.721Z,18.10
2023-02-17T05:37:22.439Z,18.93
2023-02-17T05:39:49.061Z,20.20
2023-02-17T05:42:15.663Z,21.27
2023-02-17T05:44:42.345Z,20.97
2023-02-17T05:47:09.046Z,21.37
2023-02-17T05:49:35.702Z,21.87
2023-02-17T05:52:03.086Z,21.83
2023-02-17T05:54:29.712Z,20.87
2023-02-17T05:56:56.388Z,21.93
2023-02-17T05:59:23.167Z,21.70
2023-02-17T06:01:49.768Z,22.57
2023-02-17T06:04:16.418Z,22.13
2023-02-17T06:06:43.080Z,21.77
2023-02-17T06:09:09.694Z,20.80
2023-02-17T06:11:36.283Z,21.67
2023-02-17T06:14:03.045Z,22.33
2023-02-17T06:16:29.863Z,21.60
2023-02-17T06:18:56.519Z,23.07
2023-02-17T06:21:23.156Z,21.30
2023-02-17T06:23:49.757Z,21.83
2023-02-17T06:26:18.383Z,22.03
2023-02-17T06:28:45.421Z,22.13
2023-02-17T06:31:12.213Z,22.13
2023-02-17T06:33:38.970Z,22.67
2023-02-17T06:36:06.380Z,21.70
2023-02-17T06:38:33.287Z,22.97
2023-02-17T06:40:59.914Z,23.23
2023-02-17T06:43:26.557Z,22.67
2023-02-17T06:45:53.394Z,23.87
2023-02-17T06:48:20.063Z,23.27
2023-02-17T06:50:48.623Z,24.53
2023-02-17T06:53:15.286Z,24.30
2023-02-17T06:55:44.440Z,25.00
2023-02-17T06:58:11.040Z,26.33
2023-02-17T07:00:37.630Z,26.20
2023-02-17T07:03:04.343Z,26.80
2023-02-17T07:05:31.029Z,26.57
2023-02-17T07:07:58.545Z,26.77
2023-02-17T07:10:25.176Z,26.63
2023-02-17T07:12:52.053Z,27.03
2023-02-17T07:15:18.824Z,27.07
2023-02-17T07:17:45.571Z,26.30
2023-02-17T07:20:12.611Z,27.13
2023-02-17T07:22:39.639Z,28.93
2023-02-17T07:25:06.980Z,27.70
2023-02-17T07:27:36.591Z,28.30
2023-02-17T07:30:04.420Z,28.20
2023-02-17T07:32:31.077Z,27.87
2023-02-17T07:34:57.712Z,27.33
2023-02-17T07:37:24.349Z,27.03
2023-02-17T07:39:52.279Z,28.67
2023-02-17T07:42:18.865Z,28.57
2023-02-17T07:44:46.928Z,28.23
2023-02-17T07:47:13.811Z,27.70
2023-02-17T07:49:40.448Z,29.03
2023-02-17T07:52:07.030Z,27.53
2023-02-17T07:54:33.656Z,28.43
2023-02-17T07:57:00.325Z,28.93
2023-02-17T07:59:27.003Z,28.10
2023-02-17T08:01:53.646Z,28.93
2023-02-17T08:04:20.375Z,28.10
2023-02-17T08:06:47.003Z,28.63
2023-02-17T08:09:32.369Z,27.63
2023-02-17T08:12:17.555Z,24.73
2023-02-17T08:14:44.171Z,27.03
2023-02-17T08:17:10.824Z,25.80
2023-02-17T08:19:48.120Z,24.77
2023-02-17T08:22:17.311Z,22.20
2023-02-17T08:24:44.640Z,23.23
2023-02-17T08:27:11.575Z,22.43
2023-02-17T08:29:38.190Z,18.87
2023-02-17T08:32:04.973Z,20.40
2023-02-17T08:34:34.784Z,21.83
2023-02-17T08:37:03.639Z,21.40
2023-02-17T08:39:32.254Z,22.30
2023-02-17T08:41:58.893Z,21.00
2023-02-17T08:44:25.710Z,20.30
2023-02-17T08:46:52.889Z,19.00
2023-02-17T08:49:23.289Z,19.47
2023-02-17T08:51:50.856Z,18.53
2023-02-17T08:54:17.722Z,17.20
2023-02-17T08:56:44.720Z,18.37
2023-02-17T08:59:12.375Z,13.20
2023-02-17T09:01:40.603Z,19.90
2023-02-17T09:04:09.319Z,19.87
2023-02-17T09:06:42.659Z,18.20
2023-02-17T09:09:12.012Z,21.00
2023-02-17T09:11:38.904Z,21.67
2023-02-17T09:14:06.587Z,20.80
2023-02-17T09:16:33.454Z,20.93
2023-02-17T09:19:00.185Z,20.13
2023-02-17T09:21:26.992Z,20.33
2023-02-17T09:23:53.994Z,17.90
2023-02-17T09:26:21.032Z,18.70
2023-02-17T09:28:48.112Z,20.10
2023-02-17T09:31:20.949Z,18.77
2023-02-17T09:33:48.619Z,19.13
2023-02-17T09:36:18.128Z,17.53
2023-02-17T09:38:45.269Z,18.63
2023-02-17T09:41:33.715Z,18.33
2023-02-17T09:44:00.860Z,16.70
2023-02-17T09:46:35.549Z,14.70
2023-02-17T09:49:17.666Z,16.43
2023-02-17T09:51:55.409Z,16.50
2023-02-17T09:54:36.803Z,16.43
2023-02-17T09:57:08.303Z,16.07
2023-02-17T09:59:45.207Z,16.27
2023-02-17T10:02:24.751Z,15.43
2023-02-17T10:04:54.015Z,16.07
2023-02-17T10:07:29.199Z,16.47
2023-02-17T10:10:07.000Z,17.07
2023-02-17T10:12:43.535Z,11.90
2023-02-17T10:15:17.985Z,14.40
2023-02-17T10:17:53.421Z,18.37
2023-02-17T10:20:39.848Z,20.33
2023-02-17T10:23:27.856Z,18.50
2023-02-17T10:26:06.806Z,17.47
2023-02-17T10:28:52.788Z,18.93
2023-02-17T10:31:33.158Z,11.93
2023-02-17T10:34:13.522Z,71.97
2023-02-17T10:36:58.637Z,18.73
2023-02-17T10:39:51.392Z,16.97
2023-02-17T10:42:37.951Z,18.00
2023-02-17T10:45:21.567Z,20.00
2023-02-17T10:47:48.455Z,21.57
2023-02-17T10:50:20.545Z,22.87
2023-02-17T10:52:48.325Z,22.73
2023-02-17T10:55:25.729Z,19.43
2023-02-17T10:57:58.755Z,20.13
2023-02-17T11:00:26.659Z,19.13
2023-02-17T11:02:53.509Z,20.73
2023-02-17T11:05:25.020Z,19.13
2023-02-17T11:07:59.005Z,20.77
2023-02-17T11:10:39.760Z,20.13
2023-02-17T11:13:34.597Z,20.53
2023-02-17T11:16:01.544Z,18.70
2023-02-17T11:18:35.408Z,11.17
2023-02-17T11:21:08.677Z,18.90
2023-02-17T11:23:36.421Z,19.13
2023-02-17T11:26:09.038Z,18.33
2023-02-17T11:28:35.674Z,17.87
2023-02-17T11:31:04.695Z,14.90
2023-02-17T11:33:37.763Z,13.33
2023-02-17T11:36:07.188Z,17.00
2023-02-17T11:38:40.099Z,18.40
2023-02-17T11:41:08.087Z,18.23
2023-02-17T11:43:36.142Z,14.40
2023-02-17T11:46:21.831Z,13.57
2023-02-17T11:49:29.473Z,17.80
2023-02-17T11:52:15.739Z,17.67
2023-02-17T11:55:10.724Z,16.63
2023-02-17T11:57:45.589Z,17.47
2023-02-17T12:00:22.874Z,16.80
2023-02-17T12:03:16.755Z,16.43
2023-02-17T12:06:13.318Z,16.13
2023-02-17T12:08:47.695Z,15.73
2023-02-17T12:11:20.221Z,13.90
2023-02-17T12:14:04.452Z,15.33
2023-02-17T12:16:38.223Z,9.77
2023-02-17T12:19:37.161Z,15.10
2023-02-17T12:22:23.117Z,16.83
2023-02-17T12:25:11.879Z,15.30
2023-02-17T12:28:06.583Z,13.53
2023-02-17T12:31:11.010Z,14.83
2023-02-17T12:34:15.327Z,12.93
2023-02-17T12:36:43.212Z,12.50
2023-02-17T12:39:21.820Z,14.67
2023-02-17T12:42:06.609Z,9.73
2023-02-17T12:44:43.296Z,14.23
2023-02-17T12:47:15.692Z,12.83
2023-02-17T12:49:58.266Z,13.27
2023-02-17T12:52:48.569Z,7.30
2023-02-17T12:55:22.786Z,8.33
2023-02-17T12:58:00.950Z,12.10
2023-02-17T13:00:36.351Z,11.03
2023-02-17T13:03:04.704Z,9.30
2023-02-17T13:05:59.500Z,9.27
2023-02-17T13:08:56.667Z,6.23
2023-02-17T13:11:33.423Z,7.80
2023-02-17T13:14:23.755Z,5.30
2023-02-17T13:16:50.521Z,4.43
2023-02-17T13:19:28.908Z,3.63
2023-02-17T13:21:57.172Z,3.47
2023-02-17T13:24:38.433Z,3.63
2023-02-17T13:27:20.565Z,3.33
2023-02-17T13:30:00.525Z,3.97
2023-02-17T13:32:30.138Z,3.97
2023-02-17T13:35:17.981Z,3.50
2023-02-17T13:37:46.267Z,3.40
2023-02-17T13:40:15.908Z,3.03
2023-02-17T13:42:45.829Z,2.97
2023-02-17T13:45:20.053Z,4.10
2023-02-17T13:47:49.152Z,7.00
2023-02-17T13:50:38.256Z,4.80
2023-02-17T13:53:25.406Z,3.50
2023-02-17T13:55:54.322Z,4.70
2023-02-17T13:58:28.220Z,3.00
2023-02-17T14:00:56.282Z,3.23
2023-02-17T14:03:25.980Z,3.00
2023-02-17T14:06:09.857Z,4.10
2023-02-17T14:09:26.714Z,2.80
2023-02-17T14:11:55.322Z,2.93
2023-02-17T14:14:34.102Z,2.60
2023-02-17T14:17:32.738Z,2.50
2023-02-17T14:20:00.782Z,2.53
2023-02-17T14:22:30.167Z,2.80
2023-02-17T14:25:02.930Z,3.00
2023-02-17T14:27:40.263Z,3.20
2023-02-17T14:30:07.657Z,2.87
2023-02-17T14:32:38.150Z,3.80
2023-02-17T14:35:13.795Z,2.67
2023-02-17T14:37:41.866Z,2.63
2023-02-17T14:40:23.351Z,2.57
2023-02-17T14:42:50.939Z,2.80
2023-02-17T14:45:18.800Z,2.70
2023-02-17T14:47:46.038Z,3.10
2023-02-17T14:50:13.744Z,2.90
2023-02-17T14:52:48.923Z,2.80
2023-02-17T14:55:35.704Z,2.90
2023-02-17T14:58:03.424Z,2.43
2023-02-17T15:00:30.210Z,2.80
2023-02-17T15:02:57.192Z,3.30
2023-02-17T15:05:24.007Z,2.97
2023-02-17T15:07:50.836Z,3.67
2023-02-17T15:10:26.236Z,3.57
2023-02-17T15:12:53.379Z,4.20
2023-02-17T15:15:20.699Z,3.30
2023-02-17T15:17:47.775Z,3.50
2023-02-17T15:20:16.060Z,2.90
2023-02-17T15:22:44.192Z,3.30
2023-02-17T15:25:24.527Z,2.80
2023-02-17T15:27:51.515Z,3.13
2023-02-17T15:30:22.743Z,3.53
2023-02-17T15:32:49.623Z,3.60
2023-02-17T15:35:27.162Z,3.93
2023-02-17T15:37:54.540Z,4.00
2023-02-17T15:40:26.612Z,3.37
2023-02-17T15:42:57.006Z,3.33
2023-02-17T15:45:24.643Z,4.00
2023-02-17T15:47:57.630Z,3.20
2023-02-17T15:50:31.843Z,3.80
2023-02-17T15:53:00.694Z,3.73
2023-02-17T15:55:29.100Z,3.43
2023-02-17T15:58:03.426Z,4.00
2023-02-17T16:00:35.273Z,3.30
2023-02-17T16:03:02.308Z,3.57
2023-02-17T16:05:30.195Z,3.93
2023-02-17T16:07:56.975Z,3.50
2023-02-17T16:10:29.002Z,3.60
2023-02-17T16:12:58.142Z,3.93
2023-02-17T16:15:26.042Z,3.40
2023-02-17T16:17:53.600Z,4.27
2023-02-17T16:20:23.471Z,4.27
2023-02-17T16:22:50.246Z,3.30
2023-02-17T16:25:18.547Z,3.33
2023-02-17T16:27:47.434Z,3.57
2023-02-17T16:30:33.189Z,3.80
2023-02-17T16:33:00.052Z,3.53
2023-02-17T16:35:29.409Z,3.73
2023-02-17T16:38:15.027Z,3.93
2023-02-17T16:40:47.261Z,4.40
2023-02-17T16:43:16.338Z,3.43
2023-02-17T16:45:53.073Z,3.53
2023-02-17T16:48:22.449Z,3.93
2023-02-17T16:50:49.136Z,4.00
2023-02-17T16:53:16.485Z,4.43
2023-02-17T16:55:43.586Z,3.30
2023-02-17T16:58:19.485Z,4.03
2023-02-17T17:00:48.090Z,3.30
2023-02-17T17:03:15.092Z,3.67
2023-02-17T17:05:42.852Z,4.33
2023-02-17T17:08:12.630Z,4.17
2023-02-17T17:10:40.463Z,4.33
2023-02-17T17:13:07.253Z,3.60
2023-02-17T17:15:39.901Z,3.60
2023-02-17T17:18:09.075Z,4.83
2023-02-17T17:20:40.796Z,5.30
2023-02-17T17:23:11.966Z,3.97
2023-02-17T17:25:40.599Z,4.00
2023-02-17T17:28:07.495Z,4.03
2023-02-17T17:30:35.793Z,4.67
2023-02-17T17:33:02.538Z,4.67
2023-02-17T17:35:29.610Z,4.67
2023-02-17T17:37:59.073Z,5.23
2023-02-17T17:40:34.432Z,3.90
2023-02-17T17:43:01.045Z,4.03
2023-02-17T17:45:27.702Z,4.03
2023-02-17T17:47:55.473Z,5.00
2023-02-17T17:50:23.760Z,3.97
2023-02-17T17:52:50.738Z,4.33
2023-02-17T17:55:17.576Z,4.87
2023-02-17T17:57:45.009Z,5.80
2023-02-17T18:00:15.794Z,5.63
2023-02-17T18:02:43.027Z,5.07
2023-02-17T18:05:10.033Z,6.57
2023-02-17T18:07:39.621Z,5.63
2023-02-17T18:10:09.416Z,3.23
